Latest Weather Observations for Hopetoun Airport

IDV60801

Issued at 1:32 pm EST Wednesday 27 July 2016 (issued every 30 minutes, with the page automatically refreshed every 10 minutes)

About weather observations | Map of weather stations | Latest weather observations for VIC | Other Formats
Station Details ID: 077010 Name: HOPETOUN AIRPORT Lat: -35.72 Lon: 142.36 Height: 77.3 m
Data from the previous 72 hours. | See also: Recent months at Hopetoun Airport
Date/Time
EST
Temp
°C
App
Temp
°C
Dew
Point
°C
Rel
Hum
%
Delta-T
°C
Wind Press
QNH
hPa
Press
MSL
hPa
Rain since
9am
mm
Dir  Spd
km/h
Gust
km/h
Spd
kts
Gust
kts
27/01:30pm 11.6 5.6 5.5 66 2.8 SW 26 35 14 19 1020.6 1020.7 0.0
27/01:00pm 11.2 5.3 5.9 70 2.5 SW 26 33 14 18 1020.4 1020.5 0.0
27/12:30pm 11.5 5.9 5.2 65 2.9 SW 24 35 13 19 1020.4 1020.5 0.0
27/12:00pm 11.1 4.5 6.0 71 2.4 SW 30 41 16 22 1020.5 1020.6 0.0
27/11:30am 11.2 4.5 5.7 69 2.6 SW 30 41 16 22 1020.0 1020.1 0.0
27/11:00am 10.9 4.5 6.8 76 1.9 SW 30 43 16 23 1019.8 1019.9 0.0
27/10:30am 10.3 4.4 7.4 82 1.4 SW 28 39 15 21 1019.3 1019.4 0.0
27/10:00am 10.0 4.1 7.4 84 1.2 SW 28 37 15 20 1018.6 1018.7 0.0
27/09:30am 9.6 3.7 7.4 86 1.0 SW 28 37 15 20 1018.1 1018.2 0.0
27/09:00am 9.1 4.3 7.5 90 0.8 SW 22 30 12 16 1017.4 1017.5 7.4
27/08:30am 8.6 4.5 7.7 94 0.4 WSW 19 26 10 14 1016.4 1016.5 7.4
27/08:00am 8.7 3.2 7.6 93 0.5 WSW 26 33 14 18 1015.6 1015.8 7.4
27/07:30am 8.6 2.3 7.5 93 0.5 WSW 30 46 16 25 1014.9 1015.1 7.4
27/07:24am 8.5 2.6 7.4 93 0.5 WSW 28 46 15 25 1014.8 1015.0 7.4
27/07:00am 7.9 2.3 7.3 96 0.3 W 26 35 14 19 1014.3 1014.5 7.4
27/06:30am 7.1 1.8 6.8 98 0.1 W 24 28 13 15 1013.5 1013.7 7.2
27/06:00am 7.2 1.9 6.9 98 0.1 W 24 32 13 17 1012.8 1013.0 7.2
27/05:30am 7.3 2.0 6.9 97 0.2 WNW 24 33 13 18 1012.2 1012.4 7.2
27/05:00am 7.0 2.0 6.6 97 0.2 WNW 22 28 12 15 1011.6 1011.8 7.2
27/04:30am 7.2 2.7 6.8 97 0.2 WNW 20 26 11 14 1011.1 1011.2 7.2
27/04:00am 7.1 2.1 6.5 96 0.3 WNW 22 30 12 16 1010.7 1010.8 7.2
27/03:30am 7.4 2.5 6.8 96 0.3 WNW 22 28 12 15 1010.4 1010.5 7.2
27/03:00am 7.6 2.7 7.0 96 0.3 WNW 22 28 12 15 1010.2 1010.3 7.2
27/02:30am 7.7 2.5 7.1 96 0.3 WNW 24 32 13 17 1009.6 1009.7 7.2
27/02:00am 7.8 2.6 7.1 95 0.3 WNW 24 33 13 18 1009.2 1009.3 7.2
27/01:30am 7.7 2.8 7.0 95 0.3 WNW 22 30 12 16 1008.9 1009.0 7.2
27/01:00am 8.1 2.9 7.2 94 0.4 WNW 24 33 13 18 1008.5 1008.6 7.2
27/12:30am 8.2 3.0 7.3 94 0.4 WNW 24 32 13 17 1008.4 1008.5 7.2
27/12:00am 8.8 2.9 7.4 91 0.7 WNW 28 41 15 22 1008.1 1008.2 7.2
 
Date/Time
EST
Temp
°C
App
Temp
°C
Dew
Point
°C
Rel
Hum
%
Delta-T
°C
Wind Press
QNH
hPa
Press
MSL
hPa
Rain since
9am
mm
Dir  Spd
km/h
Gust
km/h
Spd
kts
Gust
kts
26/11:30pm 8.7 3.3 7.8 94 0.4 WNW 26 35 14 19 1007.8 1007.9 7.2
26/11:00pm 8.8 3.4 7.9 94 0.4 NW 26 35 14 19 1007.7 1007.8 7.2
26/10:30pm 8.6 3.5 7.7 94 0.4 NW 24 32 13 17 1007.5 1007.6 7.2
26/10:00pm 8.1 2.2 7.5 96 0.3 NNW 28 41 15 22 1007.2 1007.3 7.2
26/09:51pm 8.1 2.2 7.7 97 0.2 N 28 43 15 23 1006.7 1006.8 7.2
26/09:30pm 8.0 4.2 7.6 97 0.2 N 17 24 9 13 1007.4 1007.5 6.0
26/09:00pm 8.3 2.7 7.1 92 0.6 NNW 26 33 14 18 1008.3 1008.4 2.2
26/08:30pm 8.8 2.3 6.4 85 1.1 NNW 30 39 16 21 1008.0 1008.1 0.4
26/08:00pm 9.3 3.3 5.1 75 1.9 N 26 37 14 20 1008.2 1008.3 0.4
26/07:30pm 9.1 3.4 5.1 76 1.8 N 24 30 13 16 1008.6 1008.7 0.4
26/07:00pm 8.6 3.8 5.4 80 1.4 N 20 24 11 13 1009.0 1009.1 0.4
26/06:30pm 8.9 4.1 5.5 79 1.5 N 20 30 11 16 1009.4 1009.5 0.4
26/06:00pm 8.8 4.5 5.4 79 1.5 N 17 22 9 12 1009.6 1009.7 0.4
26/05:30pm 8.8 4.1 5.2 78 1.6 N 19 26 10 14 1009.9 1010.0 0.4
26/05:00pm 9.9 3.9 5.1 72 2.2 NNW 26 35 14 19 1010.2 1010.3 0.4
26/04:30pm 9.9 4.9 6.3 78 1.7 NNW 22 32 12 17 1010.9 1011.0 0.4
26/04:00pm 10.2 3.3 6.5 78 1.7 NNW 32 46 17 25 1011.3 1011.4 0.4
26/03:50pm 10.1 3.5 5.9 75 1.9 NNW 30 52 16 28 1011.3 1011.4 0.4
26/03:30pm 10.1 4.1 7.0 81 1.5 NNW 28 41 15 22 1011.7 1011.9 0.4
26/03:00pm 10.2 3.1 5.4 72 2.2 NW 32 41 17 22 1012.0 1012.2 0.2
26/02:30pm 9.8 4.0 6.2 78 1.7 NNW 26 44 14 24 1012.3 1012.5 0.2
26/02:00pm 10.7 3.8 4.8 67 2.7 NNW 30 44 16 24 1012.5 1012.7 0.0
26/01:30pm 10.9 4.5 5.0 67 2.7 NNW 28 35 15 19 1013.0 1013.2 0.0
26/01:00pm 11.5 5.5 5.2 65 2.9 NNW 26 33 14 18 1013.6 1013.8 0.0
26/12:30pm 11.1 5.1 5.4 68 2.6 NNW 26 33 14 18 1014.0 1014.2 0.0
26/12:00pm 10.9 4.9 5.2 68 2.6 NNW 26 35 14 19 1014.8 1015.0 0.0
26/11:30am 10.2 5.0 5.4 72 2.2 NNW 22 30 12 16 1015.2 1015.4 0.0
26/11:00am 10.1 5.2 5.3 72 2.2 NW 20 26 11 14 1015.6 1015.8 0.0
26/10:30am 9.5 4.8 5.9 78 1.7 NW 20 24 11 13 1015.7 1015.9 0.0
26/10:00am 8.1 3.5 5.6 84 1.1 NW 19 22 10 12 1015.8 1016.0 0.0
26/09:30am 6.6 2.2 4.8 88 0.8 NW 17 22 9 12 1015.8 1016.0 0.0
26/09:00am 6.3 1.6 5.1 92 0.5 NW 19 24 10 13 1015.8 1016.0 3.8
26/08:30am 5.5 1.5 4.8 95 0.3 NW 15 19 8 10 1015.6 1015.8 3.8
26/08:00am 5.4 1.3 4.5 94 0.4 NW 15 19 8 10 1015.3 1015.5 3.8
26/07:30am 5.2 0.3 4.2 93 0.4 NW 19 22 10 12 1015.2 1015.4 3.8
26/07:00am 5.4 1.0 4.5 94 0.4 NW 17 20 9 11 1015.0 1015.2 3.8
26/06:30am 5.5 1.5 4.8 95 0.3 NW 15 19 8 10 1014.7 1014.9 3.8
26/06:00am 5.2 1.5 4.6 96 0.3 NW 13 17 7 9 1014.5 1014.7 3.8
26/05:30am 5.3 1.6 4.6 95 0.3 NW 13 17 7 9 1014.4 1014.6 3.8
26/05:00am 5.5 1.5 4.8 95 0.3 W 15 17 8 9 1014.4 1014.6 3.8
26/04:30am 5.4 1.0 4.5 94 0.4 WNW 17 20 9 11 1014.3 1014.5 3.8
26/04:00am 4.4 0.2 3.8 96 0.3 NW 15 20 8 11 1014.3 1014.5 3.8
26/03:30am 4.0 0.1 3.3 95 0.3 NW 13 15 7 8 1014.4 1014.6 3.8
26/03:00am 4.5 0.7 3.8 95 0.3 NW 13 17 7 9 1014.4 1014.6 3.8
26/02:30am 5.0 0.8 4.0 93 0.4 NW 15 19 8 10 1014.3 1014.5 3.8
26/02:00am 4.8 0.6 3.9 94 0.4 NW 15 19 8 10 1014.4 1014.6 3.8
26/01:30am 5.4 1.3 4.4 93 0.4 NW 15 19 8 10 1014.2 1014.4 3.8
26/01:00am 5.7 1.6 4.5 92 0.5 NW 15 19 8 10 1014.1 1014.3 3.8
26/12:30am 6.6 1.7 5.1 90 0.7 WNW 20 26 11 14 1014.1 1014.3 3.8
26/12:00am 6.5 1.8 5.0 90 0.7 WNW 19 22 10 12 1014.0 1014.2 3.8
 
Date/Time
EST
Temp
°C
App
Temp
°C
Dew
Point
°C
Rel
Hum
%
Delta-T
°C
Wind Press
QNH
hPa
Press
MSL
hPa
Rain since
9am
mm
Dir  Spd
km/h
Gust
km/h
Spd
kts
Gust
kts
25/11:30pm 6.8 2.1 5.9 94 0.4 WNW 20 26 11 14 1013.7 1013.9 3.8
25/11:00pm 6.8 3.0 5.9 94 0.4 WNW 15 20 8 11 1013.7 1013.9 3.8
25/10:30pm 7.5 3.0 6.3 92 0.5 WNW 19 22 10 12 1013.3 1013.5 3.8
25/10:00pm 8.1 3.1 6.6 90 0.7 W 22 30 12 16 1013.2 1013.4 3.8
25/09:30pm 8.5 3.6 7.0 90 0.7 W 22 28 12 15 1012.8 1013.0 3.8
25/09:00pm 9.3 4.6 7.6 89 0.8 W 22 33 12 18 1012.5 1012.7 3.8
25/08:30pm 9.3 4.3 8.2 93 0.5 W 24 35 13 19 1012.1 1012.3 3.8
25/08:00pm 9.0 5.0 8.4 96 0.3 W 19 24 10 13 1011.7 1011.9 3.8
25/07:30pm 9.4 4.9 8.6 95 0.4 W 22 32 12 17 1011.3 1011.4 3.8
25/07:00pm 9.3 4.4 8.5 95 0.4 WNW 24 33 13 18 1011.0 1011.1 3.8
25/06:30pm 8.9 3.1 8.1 95 0.4 WNW 28 37 15 20 1010.6 1010.7 3.8
25/06:00pm 10.1 3.3 9.2 94 0.4 W 35 48 19 26 1010.3 1010.4 2.4
25/05:51pm 10.5 3.9 8.4 87 1.0 WNW 33 43 18 23 1010.0 1010.1 1.2
25/05:30pm 11.6 2.8 7.3 75 2.1 NW 43 57 23 31 1008.9 1009.0 0.0
25/05:00pm 12.7 3.6 6.1 64 3.1 NW 43 61 23 33 1008.0 1008.1 0.0
25/04:43pm 13.2 4.5 5.9 61 3.5 NW 41 63 22 34 1008.0 1008.1 0.0
25/04:30pm 13.3 4.0 5.9 61 3.5 NNW 44 61 24 33 1008.2 1008.3 0.0
25/04:00pm 13.0 3.9 5.9 62 3.4 NW 43 56 23 30 1008.6 1008.7 0.0
25/03:30pm 13.0 4.3 5.9 62 3.4 NW 41 63 22 34 1009.3 1009.4 0.0
25/03:27pm 13.1 4.8 6.0 62 3.4 NW 39 63 21 34 1009.3 1009.4 0.0
25/03:00pm 13.2 4.1 5.9 61 3.5 NW 43 56 23 30 1009.4 1009.5 0.0
25/02:34pm 13.8 4.8 6.2 60 3.6 NW 43 63 23 34 1009.6 1009.7 0.0
25/02:30pm 13.3 5.1 6.6 64 3.2 NW 39 52 21 28 1010.0 1010.1 0.0
25/02:00pm 13.3 5.3 7.5 68 2.9 NW 39 52 21 28 1010.3 1010.4 0.0
25/01:30pm 12.5 5.2 7.4 71 2.5 NW 35 48 19 26 1010.6 1010.7 0.0
25/01:00pm 13.0 7.4 8.7 75 2.2 NW 28 37 15 20 1011.4 1011.6 0.0
25/12:30pm 12.2 5.4 7.1 71 2.5 NW 32 43 17 23 1012.2 1012.4 0.0
25/12:00pm 12.7 6.0 7.4 70 2.6 NW 32 39 17 21 1012.3 1012.5 0.0
25/11:30am 11.9 5.6 7.2 73 2.3 NW 30 37 16 20 1013.2 1013.4 0.0
25/11:00am 11.3 5.3 7.0 75 2.1 NW 28 35 15 19 1013.5 1013.7 0.0
25/10:30am 10.8 5.7 7.5 80 1.6 NW 24 32 13 17 1013.7 1013.9 0.0
25/10:00am 9.8 4.9 6.9 82 1.4 NW 22 28 12 15 1013.7 1013.9 0.0
25/09:30am 8.7 4.2 7.0 89 0.8 NW 20 26 11 14 1013.6 1013.8 0.0
25/09:00am 7.7 3.4 6.8 94 0.4 NW 19 24 10 13 1013.7 1013.9 1.4
25/08:30am 6.9 2.9 6.6 98 0.1 NW 17 20 9 11 1013.4 1013.6 1.4
25/08:00am 6.2 2.5 6.1 99 0.0 NW 15 17 8 9 1013.2 1013.4 1.4
25/07:30am 6.1 2.0 6.0 99 0.0 WNW 17 22 9 12 1012.7 1012.9 1.0
25/07:00am 6.5 2.4 6.4 99 0.0 WNW 17 22 9 12 1012.4 1012.6 1.0
25/06:30am 6.9 3.3 6.8 99 0.0 WNW 15 20 8 11 1012.2 1012.4 1.0
25/06:00am 7.2 3.3 6.9 98 0.1 WNW 17 24 9 13 1012.0 1012.2 1.0
25/05:30am 8.1 3.0 7.5 96 0.3 WNW 24 30 13 16 1011.6 1011.8 1.0
25/05:00am 8.1 2.9 7.2 94 0.4 W 24 32 13 17 1011.2 1011.3 1.0
25/04:30am 8.4 2.9 7.6 95 0.4 W 26 33 14 18 1010.7 1010.8 1.0
25/04:00am 8.3 2.4 7.7 96 0.3 WNW 28 37 15 20 1010.4 1010.5 1.0
25/03:30am 8.5 2.6 7.7 95 0.4 WNW 28 39 15 21 1010.0 1010.1 1.0
25/03:00am 8.6 2.8 8.0 96 0.3 WNW 28 39 15 21 1009.6 1009.7 1.0
25/02:30am 8.4 2.6 7.8 96 0.3 WNW 28 37 15 20 1009.5 1009.6 1.0
25/02:00am 8.3 3.6 7.9 97 0.2 WNW 22 28 12 15 1009.3 1009.4 1.0
25/01:30am 8.5 3.4 7.7 95 0.4 WNW 24 32 13 17 1009.1 1009.2 1.0
25/01:00am 8.0 2.5 7.4 96 0.3 WNW 26 33 14 18 1009.2 1009.3 1.0
25/12:30am 7.9 2.7 7.1 95 0.4 WNW 24 32 13 17 1008.9 1009.0 1.0
25/12:00am 7.7 2.5 7.1 96 0.3 WNW 24 30 13 16 1008.6 1008.7 1.0
 
Date/Time
EST
Temp
°C
App
Temp
°C
Dew
Point
°C
Rel
Hum
%
Delta-T
°C
Wind Press
QNH
hPa
Press
MSL
hPa
Rain since
9am
mm
Dir  Spd
km/h
Gust
km/h
Spd
kts
Gust
kts
24/11:30pm 7.7 1.6 6.8 94 0.4 WNW 28 35 15 19 1008.2 1008.3 1.0
24/11:00pm 7.8 1.4 6.9 94 0.4 WNW 30 41 16 22 1007.6 1007.7 1.0
24/10:30pm 7.6 1.6 6.9 95 0.3 NW 28 35 15 19 1007.1 1007.2 1.0
24/10:00pm 7.7 0.7 6.8 94 0.4 NW 33 41 18 22 1006.9 1007.0 1.0
24/09:30pm 7.6 1.5 6.5 93 0.5 NNW 28 37 15 20 1007.1 1007.2 1.0
24/09:00pm 7.8 3.1 6.1 89 0.8 NNW 20 28 11 15 1007.2 1007.3 1.0
24/08:30pm 8.0 3.0 6.3 89 0.8 NNW 22 28 12 15 1007.4 1007.5 1.0
24/08:00pm 8.0 2.9 6.1 88 0.9 NNW 22 39 12 21 1007.3 1007.4 0.8
24/07:30pm 7.9 3.7 5.9 87 0.9 NNW 17 20 9 11 1007.4 1007.5 0.6
24/07:00pm 8.2 3.4 5.5 83 1.2 NW 20 26 11 14 1007.2 1007.3 0.6
24/06:30pm 7.6 3.4 5.6 87 0.9 NNW 17 20 9 11 1007.1 1007.2 0.6
24/06:00pm 7.7 3.4 5.3 85 1.1 NW 17 20 9 11 1006.8 1006.9 0.6
24/05:30pm 8.6 3.8 5.7 82 1.3 NW 20 28 11 15 1006.6 1006.7 0.6
24/05:00pm 9.2 3.3 5.8 79 1.6 NW 26 37 14 20 1006.4 1006.5 0.6
24/04:30pm 9.5 3.2 5.5 76 1.8 WNW 28 35 15 19 1006.2 1006.3 0.6
24/04:00pm 8.9 1.8 5.6 80 1.5 NW 32 41 17 22 1006.3 1006.4 0.6
24/03:30pm 9.1 1.3 6.5 84 1.2 NW 37 50 20 27 1006.4 1006.5 0.6
24/03:01pm 9.7 2.4 7.0 83 1.3 NW 35 65 19 35 1006.3 1006.4 0.4
24/03:00pm 10.1 3.4 7.3 83 1.3 NNW 32 50 17 27 1006.4 1006.5 0.4
24/02:30pm 11.1 6.0 7.6 79 1.7 NNW 24 32 13 17 1006.4 1006.5 0.2
24/02:00pm 9.5 2.6 7.3 86 1.0 NW 33 61 18 33 1007.1 1007.2 0.2

Other Formats:

Comma delimited format used in spreadsheet applications
http://www.bom.gov.au/fwo/IDV60801/IDV60801.94838.axf

JavaScript Object Notation format (JSON) in row-major order
http://www.bom.gov.au/fwo/IDV60801/IDV60801.94838.json